sensor_id;sensor_type;location;lat;lon;timestamp;pressure;altitude;pressure_sealevel;temperature;humidity
62038;BME280;47991;42.974;12.082;2022-08-20T00:00:54;97443.39;;;18.15;87.73
62038;BME280;47991;42.974;12.082;2022-08-20T00:03:26;97447.27;;;18.02;89.28
62038;BME280;47991;42.974;12.082;2022-08-20T00:06:01;97448.17;;;17.85;90.82
62038;BME280;47991;42.974;12.082;2022-08-20T00:08:29;97444.23;;;17.73;91.90
62038;BME280;47991;42.974;12.082;2022-08-20T00:10:58;97445.63;;;17.73;92.01
62038;BME280;47991;42.974;12.082;2022-08-20T00:13:29;97441.36;;;17.82;90.62
62038;BME280;47991;42.974;12.082;2022-08-20T00:15:56;97441.16;;;17.85;91.32
62038;BME280;47991;42.974;12.082;2022-08-20T00:18:24;97443.13;;;17.97;89.29
62038;BME280;47991;42.974;12.082;2022-08-20T00:20:52;97439.03;;;18.05;88.44
62038;BME280;47991;42.974;12.082;2022-08-20T00:23:20;97435.39;;;18.15;88.11
62038;BME280;47991;42.974;12.082;2022-08-20T00:25:47;97445.42;;;18.23;87.95
62038;BME280;47991;42.974;12.082;2022-08-20T00:28:40;97436.20;;;18.35;87.46
62038;BME280;47991;42.974;12.082;2022-08-20T00:31:11;97435.39;;;18.39;87.12
62038;BME280;47991;42.974;12.082;2022-08-20T00:33:38;97439.55;;;18.44;87.16
62038;BME280;47991;42.974;12.082;2022-08-20T00:36:06;97443.24;;;18.53;86.87
62038;BME280;47991;42.974;12.082;2022-08-20T00:38:35;97443.92;;;18.62;86.41
62038;BME280;47991;42.974;12.082;2022-08-20T00:41:03;97445.30;;;18.63;85.79
62038;BME280;47991;42.974;12.082;2022-08-20T00:43:38;97440.19;;;18.62;85.61
62038;BME280;47991;42.974;12.082;2022-08-20T00:46:26;97441.73;;;18.60;85.66
62038;BME280;47991;42.974;12.082;2022-08-20T00:48:55;97442.73;;;18.61;85.46
62038;BME280;47991;42.974;12.082;2022-08-20T00:54:34;97442.63;;;18.60;85.94
62038;BME280;47991;42.974;12.082;2022-08-20T00:57:09;97440.30;;;18.52;86.31
62038;BME280;47991;42.974;12.082;2022-08-20T00:59:39;97439.08;;;18.52;86.37
62038;BME280;47991;42.974;12.082;2022-08-20T01:02:11;97439.89;;;18.53;86.35
62038;BME280;47991;42.974;12.082;2022-08-20T01:04:39;97438.56;;;18.51;86.39
62038;BME280;47991;42.974;12.082;2022-08-20T01:07:06;97440.57;;;18.53;86.34
62038;BME280;47991;42.974;12.082;2022-08-20T01:09:35;97439.05;;;18.57;86.15
62038;BME280;47991;42.974;12.082;2022-08-20T01:12:03;97435.16;;;18.62;86.26
62038;BME280;47991;42.974;12.082;2022-08-20T01:14:30;97432.95;;;18.63;86.04
62038;BME280;47991;42.974;12.082;2022-08-20T01:17:22;97432.30;;;18.65;85.77
62038;BME280;47991;42.974;12.082;2022-08-20T01:19:51;97428.15;;;18.65;85.52
62038;BME280;47991;42.974;12.082;2022-08-20T01:22:42;97429.28;;;18.67;85.37
62038;BME280;47991;42.974;12.082;2022-08-20T01:25:52;97429.56;;;18.65;85.54
62038;BME280;47991;42.974;12.082;2022-08-20T01:28:31;97426.61;;;18.66;85.57
62038;BME280;47991;42.974;12.082;2022-08-20T01:31:07;97427.61;;;18.68;85.65
62038;BME280;47991;42.974;12.082;2022-08-20T01:33:35;97424.61;;;18.70;85.49
62038;BME280;47991;42.974;12.082;2022-08-20T01:36:04;97421.59;;;18.67;85.08
62038;BME280;47991;42.974;12.082;2022-08-20T01:38:31;97422.86;;;18.61;85.10
62038;BME280;47991;42.974;12.082;2022-08-20T01:41:35;97420.05;;;18.58;84.98
62038;BME280;47991;42.974;12.082;2022-08-20T01:44:11;97421.48;;;18.55;84.89
62038;BME280;47991;42.974;12.082;2022-08-20T01:46:41;97420.11;;;18.48;84.97
62038;BME280;47991;42.974;12.082;2022-08-20T01:49:24;97419.84;;;18.44;85.13
62038;BME280;47991;42.974;12.082;2022-08-20T01:51:56;97423.09;;;18.44;85.17
62038;BME280;47991;42.974;12.082;2022-08-20T01:54:24;97418.33;;;18.40;84.88
62038;BME280;47991;42.974;12.082;2022-08-20T01:57:05;97414.98;;;18.37;84.74
62038;BME280;47991;42.974;12.082;2022-08-20T01:59:35;97413.05;;;18.36;84.42
62038;BME280;47991;42.974;12.082;2022-08-20T02:02:03;97411.29;;;18.30;84.37
62038;BME280;47991;42.974;12.082;2022-08-20T02:04:30;97410.01;;;18.25;84.68
62038;BME280;47991;42.974;12.082;2022-08-20T02:07:00;97404.85;;;18.25;84.81
62038;BME280;47991;42.974;12.082;2022-08-20T02:09:32;97405.48;;;18.21;84.74
62038;BME280;47991;42.974;12.082;2022-08-20T02:12:00;97405.98;;;18.16;85.02
62038;BME280;47991;42.974;12.082;2022-08-20T02:14:29;97403.92;;;18.11;85.47
62038;BME280;47991;42.974;12.082;2022-08-20T02:16:57;97404.67;;;18.02;85.37
62038;BME280;47991;42.974;12.082;2022-08-20T02:19:44;97404.38;;;18.04;84.73
62038;BME280;47991;42.974;12.082;2022-08-20T02:22:27;97410.65;;;18.04;84.89
62038;BME280;47991;42.974;12.082;2022-08-20T02:24:56;97409.70;;;18.10;84.65
62038;BME280;47991;42.974;12.082;2022-08-20T02:27:22;97410.83;;;18.12;84.54
62038;BME280;47991;42.974;12.082;2022-08-20T02:29:50;97408.59;;;18.14;84.54
62038;BME280;47991;42.974;12.082;2022-08-20T02:32:18;97407.88;;;18.14;84.37
62038;BME280;47991;42.974;12.082;2022-08-20T02:34:45;97414.98;;;18.18;84.02
62038;BME280;47991;42.974;12.082;2022-08-20T02:37:12;97415.74;;;18.17;83.93
62038;BME280;47991;42.974;12.082;2022-08-20T02:39:45;97420.00;;;18.11;83.98
62038;BME280;47991;42.974;12.082;2022-08-20T02:42:11;97419.56;;;18.07;84.39
62038;BME280;47991;42.974;12.082;2022-08-20T02:44:39;97421.63;;;18.06;84.24
62038;BME280;47991;42.974;12.082;2022-08-20T02:47:06;97422.17;;;17.89;84.74
62038;BME280;47991;42.974;12.082;2022-08-20T02:49:33;97419.28;;;17.77;85.27
62038;BME280;47991;42.974;12.082;2022-08-20T02:52:00;97419.69;;;17.80;85.11
62038;BME280;47991;42.974;12.082;2022-08-20T02:54:27;97417.98;;;17.78;84.84
62038;BME280;47991;42.974;12.082;2022-08-20T02:56:55;97422.27;;;17.78;84.35
62038;BME280;47991;42.974;12.082;2022-08-20T02:59:22;97418.56;;;17.78;84.26
62038;BME280;47991;42.974;12.082;2022-08-20T03:01:48;97416.54;;;17.79;83.97
62038;BME280;47991;42.974;12.082;2022-08-20T03:04:17;97416.63;;;17.77;83.95
62038;BME280;47991;42.974;12.082;2022-08-20T03:06:44;97413.56;;;17.71;84.01
62038;BME280;47991;42.974;12.082;2022-08-20T03:09:11;97424.52;;;17.65;84.12
62038;BME280;47991;42.974;12.082;2022-08-20T03:11:38;97432.43;;;17.65;84.15
62038;BME280;47991;42.974;12.082;2022-08-20T03:14:05;97426.74;;;17.64;83.97
62038;BME280;47991;42.974;12.082;2022-08-20T03:16:32;97428.31;;;17.62;83.41
62038;BME280;47991;42.974;12.082;2022-08-20T03:18:59;97427.41;;;17.53;83.11
62038;BME280;47991;42.974;12.082;2022-08-20T03:21:26;97424.09;;;17.43;83.05
62038;BME280;47991;42.974;12.082;2022-08-20T03:23:53;97426.64;;;17.40;82.98
62038;BME280;47991;42.974;12.082;2022-08-20T03:26:20;97427.13;;;17.32;83.67
62038;BME280;47991;42.974;12.082;2022-08-20T03:28:48;97423.52;;;17.26;83.86
62038;BME280;47991;42.974;12.082;2022-08-20T03:31:40;97422.28;;;17.23;84.27
62038;BME280;47991;42.974;12.082;2022-08-20T03:34:07;97424.75;;;17.20;84.19
62038;BME280;47991;42.974;12.082;2022-08-20T03:36:34;97429.42;;;17.20;84.24
62038;BME280;47991;42.974;12.082;2022-08-20T03:39:04;97429.31;;;17.19;84.10
62038;BME280;47991;42.974;12.082;2022-08-20T03:41:33;97432.62;;;17.20;83.89
62038;BME280;47991;42.974;12.082;2022-08-20T03:44:00;97429.12;;;17.22;83.77
62038;BME280;47991;42.974;12.082;2022-08-20T03:46:27;97433.48;;;17.21;83.66
62038;BME280;47991;42.974;12.082;2022-08-20T03:48:54;97434.18;;;17.18;83.82
62038;BME280;47991;42.974;12.082;2022-08-20T03:51:21;97433.04;;;17.19;84.06
62038;BME280;47991;42.974;12.082;2022-08-20T03:53:48;97437.79;;;17.09;85.06
62038;BME280;47991;42.974;12.082;2022-08-20T03:56:15;97442.88;;;16.98;85.04
62038;BME280;47991;42.974;12.082;2022-08-20T03:58:42;97440.80;;;16.94;84.48
62038;BME280;47991;42.974;12.082;2022-08-20T04:01:09;97443.28;;;16.91;84.42
62038;BME280;47991;42.974;12.082;2022-08-20T04:03:36;97438.61;;;16.95;84.19
62038;BME280;47991;42.974;12.082;2022-08-20T04:06:03;97441.11;;;16.95;83.84
62038;BME280;47991;42.974;12.082;2022-08-20T04:08:31;97434.27;;;16.87;84.50
62038;BME280;47991;42.974;12.082;2022-08-20T04:10:58;97436.17;;;16.81;84.52
62038;BME280;47991;42.974;12.082;2022-08-20T04:13:27;97435.05;;;16.82;84.38
62038;BME280;47991;42.974;12.082;2022-08-20T04:15:54;97442.06;;;16.78;84.50
62038;BME280;47991;42.974;12.082;2022-08-20T04:18:23;97440.77;;;16.76;84.67
62038;BME280;47991;42.974;12.082;2022-08-20T04:20:52;97443.45;;;16.79;84.72
62038;BME280;47991;42.974;12.082;2022-08-20T04:23:20;97444.09;;;16.83;84.47
62038;BME280;47991;42.974;12.082;2022-08-20T04:25:48;97441.45;;;16.86;84.53
62038;BME280;47991;42.974;12.082;2022-08-20T04:28:20;97440.91;;;16.92;84.25
62038;BME280;47991;42.974;12.082;2022-08-20T04:30:50;97441.67;;;16.94;84.15
62038;BME280;47991;42.974;12.082;2022-08-20T04:33:19;97444.48;;;16.92;84.26
62038;BME280;47991;42.974;12.082;2022-08-20T04:35:46;97446.94;;;16.96;84.21
62038;BME280;47991;42.974;12.082;2022-08-20T04:38:16;97451.25;;;17.01;84.43
62038;BME280;47991;42.974;12.082;2022-08-20T04:40:44;97453.54;;;17.05;84.59
62038;BME280;47991;42.974;12.082;2022-08-20T04:43:29;97454.06;;;17.12;84.63
62038;BME280;47991;42.974;12.082;2022-08-20T04:46:15;97452.05;;;17.21;84.61
62038;BME280;47991;42.974;12.082;2022-08-20T04:48:42;97455.02;;;17.31;84.47
62038;BME280;47991;42.974;12.082;2022-08-20T04:51:09;97450.58;;;17.42;84.48
62038;BME280;47991;42.974;12.082;2022-08-20T04:53:41;97451.25;;;17.49;83.81
62038;BME280;47991;42.974;12.082;2022-08-20T04:56:08;97454.35;;;17.45;83.83
62038;BME280;47991;42.974;12.082;2022-08-20T04:58:37;97455.45;;;17.53;83.66
62038;BME280;47991;42.974;12.082;2022-08-20T05:01:07;97458.46;;;17.51;83.06
62038;BME280;47991;42.974;12.082;2022-08-20T05:03:36;97460.74;;;17.55;83.31
62038;BME280;47991;42.974;12.082;2022-08-20T05:06:05;97463.98;;;17.57;83.32
62038;BME280;47991;42.974;12.082;2022-08-20T05:08:32;97469.17;;;17.57;83.29
62038;BME280;47991;42.974;12.082;2022-08-20T05:10:59;97471.27;;;17.55;83.38
62038;BME280;47991;42.974;12.082;2022-08-20T05:13:27;97474.08;;;17.53;83.58
62038;BME280;47991;42.974;12.082;2022-08-20T05:15:54;97469.60;;;17.53;83.44
62038;BME280;47991;42.974;12.082;2022-08-20T05:18:23;97474.24;;;17.59;83.36
62038;BME280;47991;42.974;12.082;2022-08-20T05:20:52;97474.75;;;17.65;83.06
62038;BME280;47991;42.974;12.082;2022-08-20T05:23:19;97474.62;;;17.67;82.98
62038;BME280;47991;42.974;12.082;2022-08-20T05:25:48;97479.77;;;17.65;82.92
62038;BME280;47991;42.974;12.082;2022-08-20T05:28:21;97479.83;;;17.67;83.45
62038;BME280;47991;42.974;12.082;2022-08-20T05:30:49;97480.79;;;17.74;83.58
62038;BME280;47991;42.974;12.082;2022-08-20T05:33:20;97479.97;;;17.88;83.57
62038;BME280;47991;42.974;12.082;2022-08-20T05:35:48;97477.02;;;18.10;83.31
62038;BME280;47991;42.974;12.082;2022-08-20T05:38:18;97472.38;;;18.46;83.20
62038;BME280;47991;42.974;12.082;2022-08-20T05:40:47;97471.36;;;19.81;81.53
62038;BME280;47991;42.974;12.082;2022-08-20T05:43:13;97470.00;;;21.41;77.25
62038;BME280;47991;42.974;12.082;2022-08-20T05:45:44;97469.42;;;22.52;69.79
62038;BME280;47991;42.974;12.082;2022-08-20T05:48:14;97470.23;;;23.52;68.47
62038;BME280;47991;42.974;12.082;2022-08-20T05:50:44;97469.98;;;24.30;62.61
62038;BME280;47991;42.974;12.082;2022-08-20T05:53:11;97466.33;;;24.41;60.34
62038;BME280;47991;42.974;12.082;2022-08-20T05:55:38;97467.62;;;24.71;62.50
62038;BME280;47991;42.974;12.082;2022-08-20T05:58:08;97472.85;;;25.71;60.90
62038;BME280;47991;42.974;12.082;2022-08-20T06:00:40;97470.34;;;26.58;58.71
62038;BME280;47991;42.974;12.082;2022-08-20T06:03:07;97467.23;;;27.06;57.64
62038;BME280;47991;42.974;12.082;2022-08-20T06:05:53;97468.58;;;27.02;53.69
62038;BME280;47991;42.974;12.082;2022-08-20T06:08:20;97467.52;;;27.46;52.83
62038;BME280;47991;42.974;12.082;2022-08-20T06:10:47;97470.26;;;27.28;55.19
62038;BME280;47991;42.974;12.082;2022-08-20T06:13:14;97466.25;;;27.62;54.38
62038;BME280;47991;42.974;12.082;2022-08-20T06:15:41;97468.27;;;26.96;55.82
62038;BME280;47991;42.974;12.082;2022-08-20T06:18:08;97476.42;;;26.08;57.17
62038;BME280;47991;42.974;12.082;2022-08-20T06:20:37;97473.61;;;25.38;59.33
62038;BME280;47991;42.974;12.082;2022-08-20T06:23:05;97478.63;;;25.27;60.87
62038;BME280;47991;42.974;12.082;2022-08-20T06:25:33;97473.23;;;24.91;60.42
62038;BME280;47991;42.974;12.082;2022-08-20T06:28:02;97471.38;;;24.81;60.34
62038;BME280;47991;42.974;12.082;2022-08-20T06:30:29;97475.14;;;24.74;60.98
62038;BME280;47991;42.974;12.082;2022-08-20T06:32:57;97484.56;;;24.37;62.66
62038;BME280;47991;42.974;12.082;2022-08-20T06:35:23;97487.23;;;24.17;63.62
62038;BME280;47991;42.974;12.082;2022-08-20T06:37:50;97490.47;;;24.05;64.06
62038;BME280;47991;42.974;12.082;2022-08-20T06:40:24;97485.09;;;24.25;63.64
62038;BME280;47991;42.974;12.082;2022-08-20T06:42:51;97484.16;;;24.36;62.74
62038;BME280;47991;42.974;12.082;2022-08-20T06:45:24;97488.10;;;24.11;62.69
62038;BME280;47991;42.974;12.082;2022-08-20T06:47:54;97485.80;;;23.79;63.32
62038;BME280;47991;42.974;12.082;2022-08-20T06:50:23;97481.38;;;23.64;64.43
62038;BME280;47991;42.974;12.082;2022-08-20T06:52:50;97481.78;;;23.53;64.71
62038;BME280;47991;42.974;12.082;2022-08-20T06:55:17;97485.20;;;23.55;65.01
62038;BME280;47991;42.974;12.082;2022-08-20T06:57:45;97484.79;;;23.60;65.09
62038;BME280;47991;42.974;12.082;2022-08-20T07:00:16;97482.83;;;24.32;64.08
62038;BME280;47991;42.974;12.082;2022-08-20T07:02:44;97478.46;;;25.27;61.44
62038;BME280;47991;42.974;12.082;2022-08-20T07:05:13;97477.05;;;25.13;60.55
62038;BME280;47991;42.974;12.082;2022-08-20T07:07:46;97479.42;;;25.20;60.67
62038;BME280;47991;42.974;12.082;2022-08-20T07:10:16;97478.79;;;25.43;60.60
62038;BME280;47991;42.974;12.082;2022-08-20T07:12:43;97475.88;;;25.54;60.28
62038;BME280;47991;42.974;12.082;2022-08-20T07:15:12;97471.59;;;25.69;60.03
62038;BME280;47991;42.974;12.082;2022-08-20T07:17:40;97469.11;;;25.86;59.66
62038;BME280;47991;42.974;12.082;2022-08-20T07:20:10;97470.27;;;26.01;59.36
62038;BME280;47991;42.974;12.082;2022-08-20T07:22:37;97473.31;;;25.93;59.85
62038;BME280;47991;42.974;12.082;2022-08-20T07:25:05;97472.20;;;25.92;59.37
62038;BME280;47991;42.974;12.082;2022-08-20T07:27:33;97469.87;;;25.43;59.92
62038;BME280;47991;42.974;12.082;2022-08-20T07:30:01;97468.42;;;25.10;60.50
62038;BME280;47991;42.974;12.082;2022-08-20T07:32:47;97467.94;;;25.02;61.24
62038;BME280;47991;42.974;12.082;2022-08-20T07:35:16;97470.29;;;24.59;63.40
62038;BME280;47991;42.974;12.082;2022-08-20T07:37:45;97472.75;;;24.50;63.78
62038;BME280;47991;42.974;12.082;2022-08-20T07:40:36;97475.92;;;24.12;65.02
62038;BME280;47991;42.974;12.082;2022-08-20T07:43:02;97474.90;;;23.85;65.48
62038;BME280;47991;42.974;12.082;2022-08-20T07:45:29;97473.89;;;23.90;65.54
62038;BME280;47991;42.974;12.082;2022-08-20T07:48:06;97474.52;;;23.94;65.85
62038;BME280;47991;42.974;12.082;2022-08-20T07:50:34;97476.65;;;23.75;66.49
62038;BME280;47991;42.974;12.082;2022-08-20T07:53:01;97477.27;;;23.80;66.05
62038;BME280;47991;42.974;12.082;2022-08-20T07:55:29;97478.83;;;24.00;65.88
62038;BME280;47991;42.974;12.082;2022-08-20T07:57:58;97477.38;;;23.98;65.26
62038;BME280;47991;42.974;12.082;2022-08-20T08:00:28;97480.42;;;23.83;66.18
62038;BME280;47991;42.974;12.082;2022-08-20T08:02:55;97477.09;;;24.11;65.24
62038;BME280;47991;42.974;12.082;2022-08-20T08:05:22;97478.01;;;24.46;63.25
62038;BME280;47991;42.974;12.082;2022-08-20T08:07:50;97487.86;;;24.73;62.23
62038;BME280;47991;42.974;12.082;2022-08-20T08:10:21;97485.34;;;24.73;61.97
62038;BME280;47991;42.974;12.082;2022-08-20T08:12:52;97487.48;;;24.97;62.46
62038;BME280;47991;42.974;12.082;2022-08-20T08:15:24;97487.91;;;24.97;60.70
62038;BME280;47991;42.974;12.082;2022-08-20T08:17:54;97491.20;;;24.80;61.54
62038;BME280;47991;42.974;12.082;2022-08-20T08:20:23;97490.30;;;24.92;60.76
62038;BME280;47991;42.974;12.082;2022-08-20T08:22:50;97491.58;;;24.72;60.86
62038;BME280;47991;42.974;12.082;2022-08-20T08:25:18;97491.89;;;24.99;60.33
62038;BME280;47991;42.974;12.082;2022-08-20T08:27:45;97490.47;;;25.09;59.57
62038;BME280;47991;42.974;12.082;2022-08-20T08:30:16;97490.64;;;24.89;58.66
62038;BME280;47991;42.974;12.082;2022-08-20T08:32:43;97494.92;;;24.71;59.36
62038;BME280;47991;42.974;12.082;2022-08-20T08:35:28;97503.34;;;24.25;59.47
62038;BME280;47991;42.974;12.082;2022-08-20T08:37:58;97494.70;;;24.35;60.78
62038;BME280;47991;42.974;12.082;2022-08-20T08:40:29;97491.88;;;24.79;59.72
62038;BME280;47991;42.974;12.082;2022-08-20T08:43:00;97495.67;;;24.77;59.08
62038;BME280;47991;42.974;12.082;2022-08-20T08:45:41;97491.35;;;24.86;58.66
62038;BME280;47991;42.974;12.082;2022-08-20T08:48:16;97495.55;;;25.24;59.28
62038;BME280;47991;42.974;12.082;2022-08-20T08:50:49;97501.63;;;25.66;58.61
62038;BME280;47991;42.974;12.082;2022-08-20T08:53:29;97498.32;;;25.72;56.02
62038;BME280;47991;42.974;12.082;2022-08-20T08:55:56;97501.21;;;25.61;57.22
62038;BME280;47991;42.974;12.082;2022-08-20T08:58:25;97499.27;;;25.95;57.47
62038;BME280;47991;42.974;12.082;2022-08-20T09:00:53;97500.16;;;26.23;56.33
62038;BME280;47991;42.974;12.082;2022-08-20T09:03:28;97501.57;;;26.33;55.48
62038;BME280;47991;42.974;12.082;2022-08-20T09:05:58;97498.19;;;26.40;55.25
62038;BME280;47991;42.974;12.082;2022-08-20T09:08:52;97499.17;;;26.05;54.95
62038;BME280;47991;42.974;12.082;2022-08-20T09:11:22;97494.38;;;26.06;54.98
62038;BME280;47991;42.974;12.082;2022-08-20T09:13:50;97496.73;;;25.70;55.72
62038;BME280;47991;42.974;12.082;2022-08-20T09:16:21;97497.79;;;25.74;55.74
62038;BME280;47991;42.974;12.082;2022-08-20T09:18:49;97503.00;;;25.66;55.18
62038;BME280;47991;42.974;12.082;2022-08-20T09:21:17;97500.07;;;26.02;55.47
62038;BME280;47991;42.974;12.082;2022-08-20T09:23:44;97499.63;;;26.16;54.09
62038;BME280;47991;42.974;12.082;2022-08-20T09:26:10;97505.21;;;26.12;54.41
62038;BME280;47991;42.974;12.082;2022-08-20T09:28:37;97497.58;;;26.48;54.19
62038;BME280;47991;42.974;12.082;2022-08-20T09:31:04;97498.77;;;26.51;53.47
62038;BME280;47991;42.974;12.082;2022-08-20T09:33:31;97498.29;;;26.41;53.56
62038;BME280;47991;42.974;12.082;2022-08-20T09:35:58;97494.55;;;26.51;53.84
62038;BME280;47991;42.974;12.082;2022-08-20T09:38:25;97496.92;;;26.19;53.06
62038;BME280;47991;42.974;12.082;2022-08-20T09:40:52;97497.44;;;26.08;53.87
62038;BME280;47991;42.974;12.082;2022-08-20T09:43:20;97500.23;;;25.84;54.47
62038;BME280;47991;42.974;12.082;2022-08-20T09:45:47;97495.41;;;25.83;54.51
62038;BME280;47991;42.974;12.082;2022-08-20T09:48:14;97495.58;;;25.76;55.65
62038;BME280;47991;42.974;12.082;2022-08-20T09:50:44;97494.84;;;25.82;54.67
62038;BME280;47991;42.974;12.082;2022-08-20T09:53:12;97497.11;;;25.83;54.85
62038;BME280;47991;42.974;12.082;2022-08-20T09:55:45;97493.11;;;25.77;54.99
62038;BME280;47991;42.974;12.082;2022-08-20T09:58:21;97488.67;;;25.78;54.56
62038;BME280;47991;42.974;12.082;2022-08-20T10:00:50;97488.92;;;25.89;55.01
62038;BME280;47991;42.974;12.082;2022-08-20T10:03:17;97492.83;;;25.65;54.18
62038;BME280;47991;42.974;12.082;2022-08-20T10:05:44;97494.30;;;25.89;54.53
62038;BME280;47991;42.974;12.082;2022-08-20T10:08:12;97489.23;;;25.68;53.81
62038;BME280;47991;42.974;12.082;2022-08-20T10:10:39;97489.77;;;25.71;55.05
62038;BME280;47991;42.974;12.082;2022-08-20T10:13:06;97486.67;;;26.13;54.98
62038;BME280;47991;42.974;12.082;2022-08-20T10:15:33;97485.31;;;26.66;53.43
62038;BME280;47991;42.974;12.082;2022-08-20T10:18:04;97484.65;;;27.06;52.84
62038;BME280;47991;42.974;12.082;2022-08-20T10:20:33;97489.71;;;27.42;50.17
62038;BME280;47991;42.974;12.082;2022-08-20T10:23:02;97485.52;;;27.55;50.14
62038;BME280;47991;42.974;12.082;2022-08-20T10:25:30;97483.40;;;27.45;50.04
62038;BME280;47991;42.974;12.082;2022-08-20T10:27:57;97485.27;;;27.32;51.75
62038;BME280;47991;42.974;12.082;2022-08-20T10:30:25;97482.20;;;27.27;51.45
62038;BME280;47991;42.974;12.082;2022-08-20T10:32:52;97483.17;;;27.22;51.10
62038;BME280;47991;42.974;12.082;2022-08-20T10:35:19;97485.76;;;27.18;50.26
62038;BME280;47991;42.974;12.082;2022-08-20T10:37:46;97484.17;;;27.54;49.52
62038;BME280;47991;42.974;12.082;2022-08-20T10:40:13;97482.61;;;27.96;49.53
62038;BME280;47991;42.974;12.082;2022-08-20T10:42:42;97476.92;;;28.28;47.32
62038;BME280;47991;42.974;12.082;2022-08-20T10:45:13;97475.71;;;28.51;46.99
62038;BME280;47991;42.974;12.082;2022-08-20T10:47:42;97470.77;;;28.70;45.42
62038;BME280;47991;42.974;12.082;2022-08-20T10:50:14;97467.25;;;28.71;44.09
62038;BME280;47991;42.974;12.082;2022-08-20T10:52:42;97468.63;;;28.88;44.52
62038;BME280;47991;42.974;12.082;2022-08-20T10:55:10;97467.51;;;29.04;45.06
62038;BME280;47991;42.974;12.082;2022-08-20T10:57:39;97470.95;;;29.26;44.49
62038;BME280;47991;42.974;12.082;2022-08-20T11:00:07;97470.69;;;29.40;43.93
62038;BME280;47991;42.974;12.082;2022-08-20T11:02:37;97469.06;;;29.61;42.59
62038;BME280;47991;42.974;12.082;2022-08-20T11:05:04;97470.16;;;29.76;43.37
62038;BME280;47991;42.974;12.082;2022-08-20T11:07:37;97468.55;;;29.84;40.76
62038;BME280;47991;42.974;12.082;2022-08-20T11:10:07;97465.91;;;29.88;40.79
62038;BME280;47991;42.974;12.082;2022-08-20T11:12:34;97465.29;;;30.00;41.81
62038;BME280;47991;42.974;12.082;2022-08-20T11:15:02;97465.94;;;29.96;39.51
62038;BME280;47991;42.974;12.082;2022-08-20T11:17:31;97466.41;;;29.98;41.04
62038;BME280;47991;42.974;12.082;2022-08-20T11:19:59;97465.88;;;30.05;40.15
62038;BME280;47991;42.974;12.082;2022-08-20T11:22:26;97460.23;;;30.09;40.21
62038;BME280;47991;42.974;12.082;2022-08-20T11:24:53;97461.60;;;30.15;39.68
62038;BME280;47991;42.974;12.082;2022-08-20T11:27:26;97457.35;;;30.17;39.15
62038;BME280;47991;42.974;12.082;2022-08-20T11:29:53;97456.29;;;30.17;39.08
62038;BME280;47991;42.974;12.082;2022-08-20T11:32:20;97460.91;;;30.13;38.98
62038;BME280;47991;42.974;12.082;2022-08-20T11:34:48;97463.33;;;30.17;39.48
62038;BME280;47991;42.974;12.082;2022-08-20T11:37:16;97463.96;;;30.21;39.26
62038;BME280;47991;42.974;12.082;2022-08-20T11:39:44;97454.80;;;30.30;38.27
62038;BME280;47991;42.974;12.082;2022-08-20T11:42:11;97453.34;;;30.28;38.46
62038;BME280;47991;42.974;12.082;2022-08-20T11:44:38;97456.11;;;30.20;38.90
62038;BME280;47991;42.974;12.082;2022-08-20T11:47:06;97454.73;;;30.21;38.18
62038;BME280;47991;42.974;12.082;2022-08-20T11:49:34;97453.61;;;30.21;38.06
62038;BME280;47991;42.974;12.082;2022-08-20T11:52:03;97454.23;;;30.19;38.89
62038;BME280;47991;42.974;12.082;2022-08-20T11:54:30;97447.20;;;30.17;38.02
62038;BME280;47991;42.974;12.082;2022-08-20T11:56:59;97453.20;;;30.18;39.52
62038;BME280;47991;42.974;12.082;2022-08-20T11:59:26;97452.05;;;30.27;39.14
62038;BME280;47991;42.974;12.082;2022-08-20T12:01:53;97450.71;;;30.27;38.26
62038;BME280;47991;42.974;12.082;2022-08-20T12:04:23;97452.19;;;30.24;38.61
62038;BME280;47991;42.974;12.082;2022-08-20T12:06:50;97447.41;;;30.31;38.58
62038;BME280;47991;42.974;12.082;2022-08-20T12:09:16;97448.55;;;30.32;38.07
62038;BME280;47991;42.974;12.082;2022-08-20T12:11:44;97445.07;;;30.27;38.54
62038;BME280;47991;42.974;12.082;2022-08-20T12:14:11;97447.41;;;30.24;37.89
62038;BME280;47991;42.974;12.082;2022-08-20T12:16:38;97446.50;;;30.20;37.18
62038;BME280;47991;42.974;12.082;2022-08-20T12:19:05;97449.81;;;30.19;38.01
62038;BME280;47991;42.974;12.082;2022-08-20T12:21:32;97448.44;;;30.22;37.82
62038;BME280;47991;42.974;12.082;2022-08-20T12:23:59;97444.73;;;30.27;38.14
62038;BME280;47991;42.974;12.082;2022-08-20T12:26:26;97443.82;;;30.40;37.94
62038;BME280;47991;42.974;12.082;2022-08-20T12:28:53;97435.97;;;30.47;37.18
62038;BME280;47991;42.974;12.082;2022-08-20T12:31:21;97438.55;;;30.54;37.93
62038;BME280;47991;42.974;12.082;2022-08-20T12:33:48;97434.10;;;30.72;38.01
62038;BME280;47991;42.974;12.082;2022-08-20T12:36:15;97429.98;;;30.81;37.75
62038;BME280;47991;42.974;12.082;2022-08-20T12:38:42;97424.44;;;30.73;36.85
62038;BME280;47991;42.974;12.082;2022-08-20T12:41:09;97426.88;;;30.92;36.48
62038;BME280;47991;42.974;12.082;2022-08-20T12:43:36;97417.79;;;30.98;36.48
62038;BME280;47991;42.974;12.082;2022-08-20T12:46:03;97419.96;;;30.93;36.65
62038;BME280;47991;42.974;12.082;2022-08-20T12:48:30;97425.61;;;30.65;37.22
62038;BME280;47991;42.974;12.082;2022-08-20T12:50:57;97424.92;;;30.83;37.86
62038;BME280;47991;42.974;12.082;2022-08-20T12:53:24;97422.40;;;31.05;37.76
62038;BME280;47991;42.974;12.082;2022-08-20T12:55:52;97419.98;;;31.21;37.13
62038;BME280;47991;42.974;12.082;2022-08-20T12:58:19;97414.27;;;31.38;36.41
62038;BME280;47991;42.974;12.082;2022-08-20T13:00:46;97410.55;;;31.45;35.84
62038;BME280;47991;42.974;12.082;2022-08-20T13:03:13;97409.38;;;31.59;36.17
62038;BME280;47991;42.974;12.082;2022-08-20T13:05:40;97409.81;;;31.76;35.93